CheckWX is a tool to help pilots better visualize weather data.  It is not intended as a substitute for an official pre-flight weather briefing.

21:19:17 UTC

EGLC TAF
London City Airport
London, United Kingdom
TAF EGLC 181656Z 1818/1903 24008KT 9999 SCT018 TEMPO 1818/1820 7000 SHRA BKN009

Feb-18@
18:00 UTC

Feb-18 @ 18:00 UTC

Feb-19@
03:00 UTC

Feb-19 @ 03:00 UTC

TAF EGLC 181656Z 1818/1903 24008KT 9999 SCT018
Wind
  • 240° at 8 KTS
Visibility
10,000+ meters
Cloud Levels
  • Scattered at 1,800' AGL

Feb-18@
18:00 UTC

Feb-18 @ 18:00 UTC

Feb-18@
20:00 UTC

Feb-18 @ 20:00 UTC

TEMPO 1818/1820 7000 SHRA BKN009

Expired

Visibility
7,001 meters
Conditions
Rain
Cloud Levels
  • Broken at 900' AGL